Time;durP1;ratioP1;P1;durP2;ratioP2;P2;SDS_P1;SDS_P2;PMS_P1;PMS_P2;Temp;Humidity;BMP_temperature;BMP_pressure;BME280_temperature;BME280_humidity;BME280_pressure;Samples;Min_cycle;Max_cycle;Signal;HPM_P1;HPM_P2
2023/12/14 00:00:19;;;;;;;4.17;1.90;;;;;;;;;;5018635;28;20183;-68
2023/12/14 00:02:45;;;;;;;3.80;2.43;;;;;;;;;;5018222;28;20183;-68
2023/12/14 00:05:11;;;;;;;2.17;1.90;;;;;;;;;;5034629;28;20199;-68
2023/12/14 00:07:37;;;;;;;1.77;1.63;;;;;;;;;;5017400;28;20187;-69
2023/12/14 00:10:04;;;;;;;1.77;1.63;;;;;;;;;;5035384;28;20241;-69
2023/12/14 00:12:31;;;;;;;4.30;2.40;;;;;;;;;;5034795;28;20679;-69
2023/12/14 00:14:57;;;;;;;2.93;2.40;;;;;;;;;;5017430;28;20199;-69
2023/12/14 00:17:23;;;;;;;3.17;2.00;;;;;;;;;;5017429;28;20178;-70
2023/12/14 00:19:49;;;;;;;2.73;2.53;;;;;;;;;;5035526;28;20183;-70
2023/12/14 00:22:15;;;;;;;3.07;2.87;;;;;;;;;;5036027;28;20183;-69
2023/12/14 00:24:40;;;;;;;2.30;1.97;;;;;;;;;;5038220;28;20219;-69
2023/12/14 00:27:06;;;;;;;3.60;1.97;;;;;;;;;;5022009;28;20187;-69
2023/12/14 00:29:32;;;;;;;2.30;1.87;;;;;;;;;;5038415;28;20187;-68
2023/12/14 00:31:58;;;;;;;2.20;2.00;;;;;;;;;;5038999;28;20294;-69
2023/12/14 00:34:24;;;;;;;3.83;3.20;;;;;;;;;;5038979;28;20198;-69
2023/12/14 00:36:50;;;;;;;3.53;3.03;;;;;;;;;;5020974;28;20172;-69
2023/12/14 00:39:16;;;;;;;1.03;1.00;;;;;;;;;;5039721;28;20182;-69
2023/12/14 00:41:42;;;;;;;1.47;1.37;;;;;;;;;;5040380;28;20179;-69
2023/12/14 00:44:08;;;;;;;1.40;1.30;;;;;;;;;;5043423;28;20206;-69
2023/12/14 00:46:34;;;;;;;1.07;1.00;;;;;;;;;;5047856;28;20175;-69
2023/12/14 00:49:01;;;;;;;2.63;1.40;;;;;;;;;;5027875;28;20569;-69
2023/12/14 00:51:27;;;;;;;2.90;2.50;;;;;;;;;;5044353;28;20237;-68
2023/12/14 00:53:53;;;;;;;3.03;2.17;;;;;;;;;;5038397;28;20187;-68
2023/12/14 00:56:19;;;;;;;1.63;1.53;;;;;;;;;;5020407;28;20179;-68
2023/12/14 00:58:45;;;;;;;2.77;2.13;;;;;;;;;;5038019;28;20257;-68
2023/12/14 01:01:11;;;;;;;2.40;1.97;;;;;;;;;;5020111;28;20257;-68
2023/12/14 01:03:37;;;;;;;2.47;2.27;;;;;;;;;;5020144;28;20206;-69
2023/12/14 01:06:03;;;;;;;4.00;2.17;;;;;;;;;;5019998;28;20607;-69
2023/12/14 01:08:29;;;;;;;2.23;2.00;;;;;;;;;;5019502;28;20232;-69
2023/12/14 01:10:55;;;;;;;2.23;1.97;;;;;;;;;;5037114;28;20187;-69
2023/12/14 01:13:21;;;;;;;1.60;1.43;;;;;;;;;;5037759;28;20198;-69
2023/12/14 01:15:48;;;;;;;3.80;1.53;;;;;;;;;;5037370;28;20546;-68
2023/12/14 01:18:14;;;;;;;2.50;2.20;;;;;;;;;;5019134;28;20203;-68
2023/12/14 01:20:39;;;;;;;2.70;1.73;;;;;;;;;;5037361;28;20179;-69
2023/12/14 01:23:05;;;;;;;2.37;2.17;;;;;;;;;;5036944;28;20540;-69
2023/12/14 01:25:31;;;;;;;4.37;2.90;;;;;;;;;;5037546;28;20167;-69
2023/12/14 01:27:57;;;;;;;2.73;2.43;;;;;;;;;;5036825;28;20343;-68
2023/12/14 01:30:23;;;;;;;3.50;2.00;;;;;;;;;;5036878;28;20183;-68
2023/12/14 01:32:49;;;;;;;4.43;2.47;;;;;;;;;;5019213;28;20217;-70
2023/12/14 01:35:15;;;;;;;2.00;1.90;;;;;;;;;;5035963;28;20575;-69
2023/12/14 01:37:41;;;;;;;1.13;1.13;;;;;;;;;;5037326;28;20568;-69
2023/12/14 01:40:07;;;;;;;3.47;2.80;;;;;;;;;;5037050;28;20184;-69
2023/12/14 01:42:33;;;;;;;2.57;2.37;;;;;;;;;;5036659;28;20190;-69
2023/12/14 01:44:59;;;;;;;2.07;1.87;;;;;;;;;;5036855;28;20195;-69
2023/12/14 01:47:25;;;;;;;5.07;3.43;;;;;;;;;;5018818;28;20214;-68
2023/12/14 01:49:51;;;;;;;3.50;1.90;;;;;;;;;;5019099;28;20290;-69
2023/12/14 01:52:17;;;;;;;3.53;3.23;;;;;;;;;;5036356;28;20199;-68
2023/12/14 01:54:43;;;;;;;3.20;1.83;;;;;;;;;;5037042;28;20282;-68
2023/12/14 01:57:09;;;;;;;4.83;3.23;;;;;;;;;;5019320;28;20221;-68
2023/12/14 01:59:35;;;;;;;2.73;2.53;;;;;;;;;;5036684;28;20171;-68
2023/12/14 02:02:02;;;;;;;2.30;2.10;;;;;;;;;;5019063;28;20183;-68
2023/12/14 02:04:28;;;;;;;2.47;2.13;;;;;;;;;;5036862;28;20285;-69
2023/12/14 02:06:54;;;;;;;3.13;2.37;;;;;;;;;;5036177;28;20186;-68
2023/12/14 02:09:20;;;;;;;3.97;3.43;;;;;;;;;;5019099;28;20186;-68
2023/12/14 02:11:46;;;;;;;4.87;2.47;;;;;;;;;;5036157;28;20239;-69
2023/12/14 02:14:12;;;;;;;2.63;2.43;;;;;;;;;;5018141;28;20199;-69
2023/12/14 02:16:38;;;;;;;4.80;3.47;;;;;;;;;;5036275;28;20600;-69
2023/12/14 02:19:05;;;;;;;5.47;3.37;;;;;;;;;;5036723;28;20198;-69
2023/12/14 02:21:31;;;;;;;3.57;2.40;;;;;;;;;;5036428;28;20205;-68
2023/12/14 02:23:57;;;;;;;2.80;2.60;;;;;;;;;;5036122;28;20215;-68
2023/12/14 02:26:23;;;;;;;2.30;2.10;;;;;;;;;;5036235;28;20657;-69
2023/12/14 02:28:49;;;;;;;2.53;2.17;;;;;;;;;;5036535;28;20237;-69
2023/12/14 02:31:15;;;;;;;2.70;2.50;;;;;;;;;;5035995;28;20213;-69
2023/12/14 02:33:41;;;;;;;2.87;2.27;;;;;;;;;;5035819;28;20733;-69
2023/12/14 02:36:07;;;;;;;4.27;2.80;;;;;;;;;;5018285;28;20209;-69
2023/12/14 02:38:33;;;;;;;2.47;2.20;;;;;;;;;;5036084;28;20175;-69
2023/12/14 02:40:59;;;;;;;2.20;2.03;;;;;;;;;;5035961;28;20178;-69
2023/12/14 02:43:25;;;;;;;2.53;2.03;;;;;;;;;;5035584;28;20219;-69
2023/12/14 02:45:51;;;;;;;3.63;2.17;;;;;;;;;;5035710;28;20175;-69
2023/12/14 02:48:17;;;;;;;6.67;1.87;;;;;;;;;;5035873;28;20171;-69
2023/12/14 02:50:43;;;;;;;2.43;2.10;;;;;;;;;;5035623;28;20188;-69
2023/12/14 02:53:09;;;;;;;2.70;2.10;;;;;;;;;;5017855;28;20199;-70
2023/12/14 02:55:35;;;;;;;2.10;1.90;;;;;;;;;;5035355;28;20171;-69
2023/12/14 02:58:01;;;;;;;2.73;2.43;;;;;;;;;;5035347;28;20186;-69
2023/12/14 03:00:27;;;;;;;3.27;2.93;;;;;;;;;;5017465;28;20186;-69
2023/12/14 03:02:53;;;;;;;5.70;2.93;;;;;;;;;;5017171;28;20252;-69
2023/12/14 03:05:19;;;;;;;2.17;1.97;;;;;;;;;;5034737;28;20205;-69
2023/12/14 03:07:45;;;;;;;2.93;2.60;;;;;;;;;;5035378;28;20179;-69
2023/12/14 03:10:11;;;;;;;2.90;2.63;;;;;;;;;;5035672;28;20637;-69
2023/12/14 03:12:37;;;;;;;2.30;2.10;;;;;;;;;;5017167;28;20656;-69
2023/12/14 03:15:03;;;;;;;2.80;2.60;;;;;;;;;;5034937;28;20195;-69
2023/12/14 03:17:29;;;;;;;2.23;2.03;;;;;;;;;;5034699;28;20638;-69
2023/12/14 03:19:55;;;;;;;2.67;2.20;;;;;;;;;;5017379;28;20229;-69
2023/12/14 03:22:21;;;;;;;6.30;2.97;;;;;;;;;;5017501;28;20187;-69
2023/12/14 03:24:47;;;;;;;3.10;2.87;;;;;;;;;;5035063;28;20573;-69
2023/12/14 03:27:13;;;;;;;3.10;2.87;;;;;;;;;;5017083;28;20191;-68
2023/12/14 03:29:38;;;;;;;3.57;2.80;;;;;;;;;;5017393;28;20273;-69
2023/12/14 03:32:05;;;;;;;4.70;3.13;;;;;;;;;;5035263;28;20199;-68
2023/12/14 03:34:30;;;;;;;3.00;2.80;;;;;;;;;;5044441;28;20229;-69
2023/12/14 03:36:56;;;;;;;3.00;2.37;;;;;;;;;;5034454;28;20179;-69
2023/12/14 03:39:22;;;;;;;3.63;2.83;;;;;;;;;;5034178;28;20183;-69
2023/12/14 03:41:48;;;;;;;2.30;2.13;;;;;;;;;;5016596;28;20187;-69
2023/12/14 03:44:14;;;;;;;2.43;2.07;;;;;;;;;;5016424;28;20229;-68
2023/12/14 03:46:40;;;;;;;3.20;3.00;;;;;;;;;;5034095;28;20187;-69
2023/12/14 03:49:06;;;;;;;3.20;2.10;;;;;;;;;;5034469;28;20175;-68
2023/12/14 03:51:32;;;;;;;2.80;2.50;;;;;;;;;;5034196;28;20230;-69
2023/12/14 03:53:58;;;;;;;3.30;3.03;;;;;;;;;;5034356;28;20195;-68
2023/12/14 03:56:24;;;;;;;1.97;1.83;;;;;;;;;;5034222;28;20224;-69
2023/12/14 03:58:50;;;;;;;3.23;2.93;;;;;;;;;;5016151;28;20687;-68
2023/12/14 04:01:17;;;;;;;2.37;1.63;;;;;;;;;;5034700;28;20270;-68
2023/12/14 04:03:43;;;;;;;4.03;2.70;;;;;;;;;;5034043;28;20282;-69
2023/12/14 04:06:09;;;;;;;2.77;2.57;;;;;;;;;;5034483;28;20260;-68
2023/12/14 04:08:35;;;;;;;2.27;2.07;;;;;;;;;;5033845;28;20229;-69
2023/12/14 04:11:01;;;;;;;2.77;2.57;;;;;;;;;;5033810;28;20198;-69
2023/12/14 04:13:27;;;;;;;3.07;2.70;;;;;;;;;;5034940;28;20222;-68
2023/12/14 04:15:53;;;;;;;3.57;3.23;;;;;;;;;;5044062;28;20172;-70
2023/12/14 04:18:19;;;;;;;4.00;2.70;;;;;;;;;;5055199;28;20243;-69
2023/12/14 04:20:45;;;;;;;8.37;2.23;;;;;;;;;;5052175;28;20183;-68
2023/12/14 04:23:11;;;;;;;3.63;2.90;;;;;;;;;;5035595;28;20187;-71
2023/12/14 04:25:37;;;;;;;3.67;3.37;;;;;;;;;;5018693;28;20210;-67
2023/12/14 04:28:03;;;;;;;4.00;2.80;;;;;;;;;;5017144;28;20179;-69
2023/12/14 04:30:29;;;;;;;6.30;4.00;;;;;;;;;;5034831;28;20183;-69
2023/12/14 04:32:54;;;;;;;6.57;3.73;;;;;;;;;;5017289;28;20213;-69
2023/12/14 04:35:22;;;;;;;4.57;2.93;;;;;;;;;;5034624;28;20290;-69
2023/12/14 04:37:48;;;;;;;2.97;2.67;;;;;;;;;;5034949;28;20167;-68
2023/12/14 04:40:14;;;;;;;3.70;3.13;;;;;;;;;;5016565;28;20175;-69
2023/12/14 04:42:40;;;;;;;4.03;2.93;;;;;;;;;;5034916;28;20187;-69
2023/12/14 04:45:06;;;;;;;2.27;2.13;;;;;;;;;;5034229;28;20203;-69
2023/12/14 04:47:32;;;;;;;6.27;3.47;;;;;;;;;;5016525;28;20270;-69
2023/12/14 04:49:58;;;;;;;2.67;2.13;;;;;;;;;;5017074;28;20329;-69
2023/12/14 04:52:24;;;;;;;5.43;3.43;;;;;;;;;;5034863;28;20256;-68
2023/12/14 04:54:50;;;;;;;5.67;2.90;;;;;;;;;;5016584;28;20202;-69
2023/12/14 04:57:16;;;;;;;8.23;3.40;;;;;;;;;;5016604;28;20234;-69
2023/12/14 04:59:42;;;;;;;4.77;3.40;;;;;;;;;;5016178;28;20183;-68
2023/12/14 05:02:08;;;;;;;1.23;1.10;;;;;;;;;;5016479;28;20187;-69
2023/12/14 05:04:34;;;;;;;7.97;3.43;;;;;;;;;;5034042;28;20203;-69
2023/12/14 05:07:00;;;;;;;6.60;4.37;;;;;;;;;;5016994;28;20189;-69
2023/12/14 05:09:26;;;;;;;2.33;2.00;;;;;;;;;;5016024;28;20207;-69
2023/12/14 05:11:52;;;;;;;5.60;3.47;;;;;;;;;;5018734;28;20301;-69
2023/12/14 05:14:18;;;;;;;4.53;3.33;;;;;;;;;;5019598;28;20594;-69
2023/12/14 05:16:44;;;;;;;2.97;2.63;;;;;;;;;;5037900;28;20649;-68
2023/12/14 05:19:12;;;;;;;3.90;3.00;;;;;;;;;;5037637;28;20179;-68
2023/12/14 05:21:38;;;;;;;2.50;2.30;;;;;;;;;;5037264;28;20179;-68
2023/12/14 05:24:04;;;;;;;6.77;3.37;;;;;;;;;;5036768;28;20215;-69
2023/12/14 05:26:30;;;;;;;3.73;3.40;;;;;;;;;;5020076;28;20206;-69
2023/12/14 05:28:56;;;;;;;2.10;1.73;;;;;;;;;;5037526;28;20190;-69
2023/12/14 05:31:22;;;;;;;2.20;2.00;;;;;;;;;;5036965;28;20282;-69
2023/12/14 05:33:48;;;;;;;3.90;3.03;;;;;;;;;;5019096;28;20199;-68
2023/12/14 05:36:14;;;;;;;2.57;2.10;;;;;;;;;;5019566;28;20222;-70
2023/12/14 05:38:40;;;;;;;4.67;3.80;;;;;;;;;;5019068;28;20645;-70
2023/12/14 05:41:07;;;;;;;6.00;3.37;;;;;;;;;;5018980;28;20263;-70
2023/12/14 05:43:33;;;;;;;5.67;3.03;;;;;;;;;;5036640;28;20202;-69
2023/12/14 05:45:59;;;;;;;3.23;3.03;;;;;;;;;;5036755;28;20652;-69
2023/12/14 05:48:26;;;;;;;2.67;2.47;;;;;;;;;;5036802;28;20175;-68
2023/12/14 05:50:52;;;;;;;4.33;3.17;;;;;;;;;;5019230;28;20183;-70
2023/12/14 05:53:18;;;;;;;4.27;3.17;;;;;;;;;;5036958;28;20218;-69
2023/12/14 05:55:44;;;;;;;6.63;4.43;;;;;;;;;;5018875;28;20185;-69
2023/12/14 05:58:10;;;;;;;3.40;2.57;;;;;;;;;;5036631;28;20171;-69
2023/12/14 06:00:37;;;;;;;3.03;2.67;;;;;;;;;;5036148;28;20243;-68
2023/12/14 06:03:03;;;;;;;4.33;2.63;;;;;;;;;;5035994;28;20269;-69
2023/12/14 06:05:29;;;;;;;5.30;3.20;;;;;;;;;;5036343;28;20184;-68
2023/12/14 06:07:55;;;;;;;4.17;3.33;;;;;;;;;;5018069;28;20621;-68
2023/12/14 06:10:24;;;;;;;2.77;2.57;;;;;;;;;;5036717;28;20179;-68
2023/12/14 06:12:49;;;;;;;4.20;3.10;;;;;;;;;;5018347;28;20761;-68
2023/12/14 06:15:15;;;;;;;4.63;3.43;;;;;;;;;;5036045;28;20227;-68
2023/12/14 06:17:42;;;;;;;2.73;2.53;;;;;;;;;;5036330;28;20198;-68
2023/12/14 06:20:08;;;;;;;3.03;2.70;;;;;;;;;;5036120;28;20222;-68
2023/12/14 06:22:36;;;;;;;4.67;3.73;;;;;;;;;;5035646;28;20570;-68
2023/12/14 06:25:05;;;;;;;3.70;3.17;;;;;;;;;;5035765;28;20219;-68
2023/12/14 06:27:31;;;;;;;5.53;3.83;;;;;;;;;;5035938;28;20198;-68
2023/12/14 06:29:57;;;;;;;6.13;3.20;;;;;;;;;;5036515;28;20179;-68
2023/12/14 06:32:23;;;;;;;3.63;3.30;;;;;;;;;;5035825;28;20207;-68
2023/12/14 06:34:49;;;;;;;5.53;3.30;;;;;;;;;;5036347;28;20210;-68
2023/12/14 06:37:15;;;;;;;8.07;4.10;;;;;;;;;;5018608;28;20262;-68
2023/12/14 06:39:42;;;;;;;4.20;2.63;;;;;;;;;;5036144;28;20210;-68
2023/12/14 06:42:08;;;;;;;6.00;3.47;;;;;;;;;;5019244;28;20187;-68
2023/12/14 06:44:34;;;;;;;3.93;3.60;;;;;;;;;;5035646;28;20191;-68
2023/12/14 06:47:00;;;;;;;5.67;3.97;;;;;;;;;;5035576;28;20271;-69
2023/12/14 06:49:26;;;;;;;5.53;3.73;;;;;;;;;;5035892;28;20186;-68
2023/12/14 06:51:52;;;;;;;4.87;3.80;;;;;;;;;;5035539;28;20203;-67
2023/12/14 06:54:18;;;;;;;4.37;3.97;;;;;;;;;;5017846;28;20673;-68
2023/12/14 06:56:44;;;;;;;7.33;3.93;;;;;;;;;;5035083;28;20167;-68
2023/12/14 06:59:10;;;;;;;4.10;3.03;;;;;;;;;;5035521;28;20171;-67
2023/12/14 07:01:36;;;;;;;4.43;3.70;;;;;;;;;;5035483;28;20179;-68
2023/12/14 07:04:03;;;;;;;6.50;4.00;;;;;;;;;;5035934;28;20286;-68
2023/12/14 07:06:30;;;;;;;3.17;2.70;;;;;;;;;;5046636;28;20176;-68
2023/12/14 07:08:55;;;;;;;3.43;2.77;;;;;;;;;;5037615;28;20183;-68
2023/12/14 07:11:21;;;;;;;3.93;3.13;;;;;;;;;;5051199;28;20206;-68
2023/12/14 07:13:47;;;;;;;4.67;2.43;;;;;;;;;;5036314;28;20266;-68
2023/12/14 07:16:14;;;;;;;3.37;3.07;;;;;;;;;;5017927;28;20182;-68
2023/12/14 07:18:44;;;;;;;2.77;2.57;;;;;;;;;;5035894;28;20203;-68
2023/12/14 07:21:10;;;;;;;5.70;3.50;;;;;;;;;;5035528;28;20249;-68
2023/12/14 07:23:37;;;;;;;2.90;2.37;;;;;;;;;;5035592;28;20210;-68
2023/12/14 07:26:03;;;;;;;5.57;3.77;;;;;;;;;;5035640;28;20171;-67
2023/12/14 07:28:29;;;;;;;4.30;3.57;;;;;;;;;;5035269;28;20546;-68
2023/12/14 07:30:55;;;;;;;4.37;3.90;;;;;;;;;;5035287;28;20171;-68
2023/12/14 07:33:21;;;;;;;3.73;3.17;;;;;;;;;;5031486;28;20207;-68
2023/12/14 07:35:47;;;;;;;4.83;3.13;;;;;;;;;;5033780;28;20654;-68
2023/12/14 07:38:13;;;;;;;5.00;4.07;;;;;;;;;;5050721;28;20197;-68
2023/12/14 07:40:40;;;;;;;5.50;4.93;;;;;;;;;;5046173;28;20175;-68
2023/12/14 07:43:07;;;;;;;5.80;3.60;;;;;;;;;;5034889;28;20175;-68
2023/12/14 07:45:32;;;;;;;8.73;4.90;;;;;;;;;;5017390;28;20190;-68
2023/12/14 07:47:58;;;;;;;7.93;4.80;;;;;;;;;;5034979;28;20179;-67
2023/12/14 07:50:24;;;;;;;6.23;3.60;;;;;;;;;;5034357;28;20258;-68
2023/12/14 07:52:50;;;;;;;8.53;4.80;;;;;;;;;;5034828;28;20350;-68
2023/12/14 07:55:18;;;;;;;3.63;3.30;;;;;;;;;;5035040;28;20226;-69
2023/12/14 07:57:44;;;;;;;8.43;4.13;;;;;;;;;;5034972;28;20167;-68
2023/12/14 08:00:10;;;;;;;4.63;3.07;;;;;;;;;;5035424;28;20182;-67
2023/12/14 08:02:37;;;;;;;8.07;4.93;;;;;;;;;;5034653;28;20189;-67
2023/12/14 08:05:03;;;;;;;7.10;3.43;;;;;;;;;;5034703;28;20579;-68
2023/12/14 08:07:29;;;;;;;3.10;2.87;;;;;;;;;;5034813;28;20229;-68
2023/12/14 08:09:56;;;;;;;9.10;4.00;;;;;;;;;;5034464;28;20175;-68
2023/12/14 08:12:22;;;;;;;3.33;3.03;;;;;;;;;;5034769;28;20238;-68
2023/12/14 08:14:48;;;;;;;5.03;3.50;;;;;;;;;;5034485;28;20199;-67
2023/12/14 08:17:14;;;;;;;4.87;3.83;;;;;;;;;;5034462;28;20179;-68
2023/12/14 08:19:40;;;;;;;3.57;3.23;;;;;;;;;;5016906;28;20187;-68
2023/12/14 08:22:07;;;;;;;4.37;3.03;;;;;;;;;;5034909;28;20709;-68
2023/12/14 08:24:33;;;;;;;2.63;2.43;;;;;;;;;;5034361;28;20207;-68
2023/12/14 08:26:59;;;;;;;8.03;4.47;;;;;;;;;;5034523;28;20182;-68
2023/12/14 08:29:25;;;;;;;4.03;3.00;;;;;;;;;;5034615;28;20175;-68
2023/12/14 08:31:51;;;;;;;4.23;3.73;;;;;;;;;;5016178;28;20595;-68
2023/12/14 08:34:17;;;;;;;4.73;3.37;;;;;;;;;;5034086;28;20278;-69
2023/12/14 08:36:43;;;;;;;4.97;3.37;;;;;;;;;;5033927;28;20176;-68
2023/12/14 08:39:09;;;;;;;4.27;3.47;;;;;;;;;;5016539;28;20262;-68
2023/12/14 08:41:35;;;;;;;6.83;4.07;;;;;;;;;;5033988;28;20207;-68
2023/12/14 08:44:01;;;;;;;3.83;3.13;;;;;;;;;;5033868;28;20203;-68
2023/12/14 08:46:27;;;;;;;6.73;3.43;;;;;;;;;;5019863;28;20194;-68
2023/12/14 08:48:53;;;;;;;4.53;3.77;;;;;;;;;;5037722;28;20240;-68
2023/12/14 08:51:20;;;;;;;4.50;2.23;;;;;;;;;;5039051;28;20209;-68
2023/12/14 08:53:46;;;;;;;3.37;2.87;;;;;;;;;;5037974;28;20198;-68
2023/12/14 08:56:12;;;;;;;8.63;5.97;;;;;;;;;;5038103;28;20179;-68
2023/12/14 08:58:38;;;;;;;52.53;29.27;;;;;;;;;;5038209;28;20262;-68
2023/12/14 09:01:04;;;;;;;49.13;29.97;;;;;;;;;;5037912;28;20202;-68
2023/12/14 09:03:30;;;;;;;48.50;28.57;;;;;;;;;;5037709;28;20281;-68
2023/12/14 09:05:58;;;;;;;49.23;28.60;;;;;;;;;;5038980;28;20179;-68
2023/12/14 09:08:24;;;;;;;50.77;28.17;;;;;;;;;;5037976;28;20179;-68
2023/12/14 09:10:50;;;;;;;49.53;28.47;;;;;;;;;;5037638;28;20179;-69
2023/12/14 09:13:16;;;;;;;46.83;27.20;;;;;;;;;;5037450;28;20222;-68
2023/12/14 09:15:42;;;;;;;50.27;29.00;;;;;;;;;;5019545;28;20205;-69
2023/12/14 09:18:08;;;;;;;47.63;27.70;;;;;;;;;;5037602;28;20182;-68
2023/12/14 09:20:35;;;;;;;42.83;28.03;;;;;;;;;;5020023;28;20175;-68
2023/12/14 09:23:01;;;;;;;47.53;28.87;;;;;;;;;;5037322;28;20269;-70
2023/12/14 09:25:27;;;;;;;42.10;26.53;;;;;;;;;;5055884;28;20171;-70
2023/12/14 09:27:53;;;;;;;41.33;25.37;;;;;;;;;;5041655;28;20216;-70
2023/12/14 09:30:19;;;;;;;38.23;25.17;;;;;;;;;;5059080;28;20237;-69
2023/12/14 09:32:45;;;;;;;37.23;25.53;;;;;;;;;;5058395;28;20187;-68
2023/12/14 09:35:11;;;;;;;35.33;24.27;;;;;;;;;;5057965;28;20198;-69
2023/12/14 09:37:37;;;;;;;34.57;23.83;;;;;;;;;;5040605;28;20206;-69
2023/12/14 09:40:03;;;;;;;31.63;22.37;;;;;;;;;;5040244;28;20251;-69
2023/12/14 09:42:37;;;;;;;37.33;24.00;;;;;;;;;;5057448;28;20178;-69
2023/12/14 09:45:03;;;;;;;32.60;23.10;;;;;;;;;;5057166;28;20198;-70
2023/12/14 09:47:29;;;;;;;35.33;21.77;;;;;;;;;;5056853;28;20179;-69
2023/12/14 09:49:55;;;;;;;32.23;22.93;;;;;;;;;;5056510;28;20179;-69
2023/12/14 09:52:21;;;;;;;30.97;21.87;;;;;;;;;;5056751;28;20213;-69
2023/12/14 09:54:47;;;;;;;33.17;22.80;;;;;;;;;;5039148;28;20792;-68
2023/12/14 09:57:13;;;;;;;29.73;21.57;;;;;;;;;;5056052;28;20190;-69
2023/12/14 09:59:39;;;;;;;34.40;22.37;;;;;;;;;;5055083;28;20183;-70
2023/12/14 10:02:12;;;;;;;29.40;22.57;;;;;;;;;;5054343;28;20239;-69
2023/12/14 10:04:38;;;;;;;29.53;20.40;;;;;;;;;;5045695;28;20685;-68
2023/12/14 10:07:06;;;;;;;32.17;20.80;;;;;;;;;;5020671;28;20175;-68
2023/12/14 10:09:33;;;;;;;30.80;21.23;;;;;;;;;;5039094;28;20221;-68
2023/12/14 10:12:06;;;;;;;30.20;21.93;;;;;;;;;;5021585;28;20206;-68
2023/12/14 10:14:33;;;;;;;31.57;20.70;;;;;;;;;;5038219;28;20199;-68
2023/12/14 10:16:59;;;;;;;30.10;21.03;;;;;;;;;;5038740;28;20202;-68
2023/12/14 10:19:26;;;;;;;27.27;20.00;;;;;;;;;;5037708;28;20605;-68
2023/12/14 10:21:52;;;;;;;31.70;19.57;;;;;;;;;;5037780;28;20228;-68
2023/12/14 10:24:19;;;;;;;26.03;19.60;;;;;;;;;;5037383;28;20225;-68
2023/12/14 10:26:46;;;;;;;27.80;19.80;;;;;;;;;;5037216;28;20174;-68
2023/12/14 10:29:12;;;;;;;27.07;19.77;;;;;;;;;;5019305;28;20179;-68
2023/12/14 10:31:38;;;;;;;28.43;20.40;;;;;;;;;;5037168;28;20209;-68
2023/12/14 10:34:07;;;;;;;28.97;19.03;;;;;;;;;;5038019;28;20195;-68
2023/12/14 10:36:33;;;;;;;25.33;18.07;;;;;;;;;;5036479;28;20176;-68
2023/12/14 10:39:01;;;;;;;24.37;17.23;;;;;;;;;;5037014;28;20176;-68
2023/12/14 10:41:30;;;;;;;24.40;17.47;;;;;;;;;;5036640;28;20195;-68
2023/12/14 10:43:57;;;;;;;25.53;18.23;;;;;;;;;;5036953;28;20251;-68
2023/12/14 10:46:26;;;;;;;24.97;16.77;;;;;;;;;;5036655;28;20206;-68
2023/12/14 10:48:52;;;;;;;22.30;15.60;;;;;;;;;;5038513;28;20171;-68
2023/12/14 10:51:19;;;;;;;23.77;15.80;;;;;;;;;;5038810;28;20176;-68
2023/12/14 10:53:49;;;;;;;24.00;15.90;;;;;;;;;;5020132;28;20195;-68
2023/12/14 10:56:15;;;;;;;20.90;15.10;;;;;;;;;;5038803;28;20230;-68
2023/12/14 10:58:55;;;;;;;19.93;14.57;;;;;;;;;;5037366;28;20179;-68
2023/12/14 11:01:23;;;;;;;23.67;14.43;;;;;;;;;;5038171;28;20175;-68
2023/12/14 11:03:50;;;;;;;22.40;15.07;;;;;;;;;;5037901;28;20623;-68
2023/12/14 11:06:26;;;;;;;18.30;12.63;;;;;;;;;;5019374;28;20209;-68
2023/12/14 11:08:54;;;;;;;20.10;13.67;;;;;;;;;;5037295;28;20171;-68
2023/12/14 11:11:20;;;;;;;21.00;14.07;;;;;;;;;;5037614;28;20182;-68
2023/12/14 11:13:50;;;;;;;21.13;13.90;;;;;;;;;;5037781;28;20195;-68
2023/12/14 11:16:16;;;;;;;20.67;13.33;;;;;;;;;;5037900;28;20186;-68
2023/12/14 11:18:42;;;;;;;20.53;13.77;;;;;;;;;;5036941;28;20171;-69
2023/12/14 11:21:08;;;;;;;17.53;12.10;;;;;;;;;;5019569;28;20175;-68
2023/12/14 11:23:36;;;;;;;16.50;12.80;;;;;;;;;;5035632;28;20219;-68
2023/12/14 11:26:06;;;;;;;19.13;13.30;;;;;;;;;;5019636;28;20190;-68
2023/12/14 11:28:33;;;;;;;22.10;12.77;;;;;;;;;;5036755;28;20554;-69
2023/12/14 11:31:01;;;;;;;21.27;13.83;;;;;;;;;;5036107;28;20268;-68
2023/12/14 11:33:28;;;;;;;18.87;14.27;;;;;;;;;;5035353;28;20202;-69
2023/12/14 11:35:56;;;;;;;17.23;12.87;;;;;;;;;;5035622;28;20175;-68
2023/12/14 11:38:23;;;;;;;18.83;13.63;;;;;;;;;;5018670;28;20175;-68
2023/12/14 11:40:50;;;;;;;18.57;13.67;;;;;;;;;;5017981;28;20210;-69
2023/12/14 11:43:16;;;;;;;19.33;13.67;;;;;;;;;;5035416;28;20203;-69
2023/12/14 11:45:42;;;;;;;22.53;15.67;;;;;;;;;;5035559;28;20182;-69
2023/12/14 11:48:12;;;;;;;24.73;14.77;;;;;;;;;;5035277;28;20175;-69
2023/12/14 11:50:38;;;;;;;19.30;14.03;;;;;;;;;;5035790;28;20171;-68
2023/12/14 11:53:05;;;;;;;24.47;13.90;;;;;;;;;;5016870;28;20228;-69
2023/12/14 11:55:32;;;;;;;22.43;15.03;;;;;;;;;;5034925;28;20568;-68
2023/12/14 11:57:58;;;;;;;24.77;15.97;;;;;;;;;;5034844;28;20175;-69
2023/12/14 12:00:25;;;;;;;21.13;15.00;;;;;;;;;;5035301;28;20536;-68
2023/12/14 12:02:51;;;;;;;24.83;15.30;;;;;;;;;;5034453;28;20683;-68
2023/12/14 12:05:18;;;;;;;22.30;15.13;;;;;;;;;;5034838;28;20285;-69
2023/12/14 12:07:44;;;;;;;23.57;15.33;;;;;;;;;;5035126;28;20175;-68
2023/12/14 12:10:11;;;;;;;23.40;16.27;;;;;;;;;;5034980;28;20248;-69
2023/12/14 12:12:37;;;;;;;28.70;18.07;;;;;;;;;;5035082;28;20213;-69
2023/12/14 12:15:04;;;;;;;24.70;15.80;;;;;;;;;;5034927;28;20202;-70
2023/12/14 12:17:33;;;;;;;28.27;15.40;;;;;;;;;;5035302;28;20179;-69
2023/12/14 12:19:59;;;;;;;28.27;16.60;;;;;;;;;;5036215;28;20202;-69
2023/12/14 12:22:25;;;;;;;25.63;15.73;;;;;;;;;;5039101;28;20190;-69
2023/12/14 12:24:51;;;;;;;26.97;17.03;;;;;;;;;;5038901;28;20222;-69
2023/12/14 12:27:17;;;;;;;28.67;14.70;;;;;;;;;;5039484;28;20179;-68
2023/12/14 12:29:43;;;;;;;19.57;14.40;;;;;;;;;;5041659;28;20183;-68
2023/12/14 12:32:09;;;;;;;21.10;15.10;;;;;;;;;;5021553;28;20206;-68
2023/12/14 12:34:35;;;;;;;20.83;14.13;;;;;;;;;;5039668;28;20202;-68
2023/12/14 12:37:01;;;;;;;23.27;14.47;;;;;;;;;;5039130;28;20206;-68
2023/12/14 12:39:28;;;;;;;23.57;14.13;;;;;;;;;;5038705;28;20286;-69
2023/12/14 12:41:54;;;;;;;27.00;14.53;;;;;;;;;;5039101;28;20653;-68
2023/12/14 12:44:20;;;;;;;23.90;14.93;;;;;;;;;;5054791;28;20202;-69
2023/12/14 12:46:46;;;;;;;19.53;13.70;;;;;;;;;;5057179;28;20258;-70
2023/12/14 12:49:12;;;;;;;18.30;12.97;;;;;;;;;;5039417;28;20186;-69
2023/12/14 12:51:38;;;;;;;17.93;12.27;;;;;;;;;;5057126;28;20275;-69
2023/12/14 12:54:04;;;;;;;21.30;13.20;;;;;;;;;;5038624;28;20219;-69
2023/12/14 12:56:30;;;;;;;15.13;9.97;;;;;;;;;;5058048;28;20171;-69
2023/12/14 12:58:56;;;;;;;16.07;11.57;;;;;;;;;;5051902;28;20175;-69
2023/12/14 13:01:25;;;;;;;18.00;12.50;;;;;;;;;;5054426;28;20628;-69
2023/12/14 13:03:54;;;;;;;16.40;12.47;;;;;;;;;;5052757;28;20226;-69
2023/12/14 13:06:20;;;;;;;19.20;12.07;;;;;;;;;;5047908;28;20641;-68
2023/12/14 13:08:46;;;;;;;15.43;12.30;;;;;;;;;;5048512;28;20178;-68
2023/12/14 13:11:12;;;;;;;16.47;11.90;;;;;;;;;;5047962;28;20175;-68
2023/12/14 13:13:38;;;;;;;14.13;10.20;;;;;;;;;;5050424;28;20241;-69
2023/12/14 13:16:05;;;;;;;13.13;9.80;;;;;;;;;;5050522;28;20171;-69
2023/12/14 13:18:31;;;;;;;14.23;10.57;;;;;;;;;;5047942;28;20577;-69
2023/12/14 13:20:57;;;;;;;13.53;10.20;;;;;;;;;;5048263;28;20178;-68
2023/12/14 13:23:23;;;;;;;15.97;10.87;;;;;;;;;;5043332;28;20249;-68
2023/12/14 13:25:49;;;;;;;18.03;11.47;;;;;;;;;;5045036;28;20560;-68
2023/12/14 13:28:15;;;;;;;16.50;10.60;;;;;;;;;;5042892;28;20261;-68
2023/12/14 13:30:41;;;;;;;15.43;10.50;;;;;;;;;;5051512;28;20649;-69
2023/12/14 13:33:11;;;;;;;15.50;11.73;;;;;;;;;;5029142;28;20207;-69
2023/12/14 13:35:37;;;;;;;19.70;11.73;;;;;;;;;;5030596;28;20179;-68
2023/12/14 13:38:02;;;;;;;15.27;11.67;;;;;;;;;;5039459;28;20185;-70
2023/12/14 13:40:28;;;;;;;20.33;11.90;;;;;;;;;;5019443;28;20185;-68
2023/12/14 13:42:59;;;;;;;14.97;10.87;;;;;;;;;;5037508;28;20253;-68
2023/12/14 13:45:25;;;;;;;16.37;11.70;;;;;;;;;;5037878;28;20323;-70
2023/12/14 13:47:51;;;;;;;16.57;11.77;;;;;;;;;;5037524;28;20183;-68
2023/12/14 13:50:18;;;;;;;15.63;11.20;;;;;;;;;;5037008;28;20175;-68
2023/12/14 13:52:43;;;;;;;15.33;12.43;;;;;;;;;;5019421;28;20238;-68
2023/12/14 13:55:09;;;;;;;13.27;10.57;;;;;;;;;;5036904;28;20226;-69
2023/12/14 13:57:35;;;;;;;15.07;10.53;;;;;;;;;;5037501;28;20176;-68
2023/12/14 14:00:01;;;;;;;14.87;11.20;;;;;;;;;;5037398;28;20179;-69
2023/12/14 14:02:28;;;;;;;20.77;13.33;;;;;;;;;;5036533;28;20258;-70
2023/12/14 14:04:54;;;;;;;17.40;12.27;;;;;;;;;;5036479;28;20199;-69
2023/12/14 14:07:22;;;;;;;20.87;12.30;;;;;;;;;;5037484;28;20182;-69
2023/12/14 14:09:48;;;;;;;17.97;12.60;;;;;;;;;;5019587;28;20189;-69
2023/12/14 14:12:14;;;;;;;25.57;17.67;;;;;;;;;;5032565;28;20207;-69
2023/12/14 14:14:40;;;;;;;41.43;35.67;;;;;;;;;;5046130;28;20199;-69
2023/12/14 14:17:07;;;;;;;43.33;32.20;;;;;;;;;;5045022;28;20545;-70
2023/12/14 14:19:33;;;;;;;17.93;13.50;;;;;;;;;;5046099;28;20194;-71
2023/12/14 14:21:59;;;;;;;20.60;13.37;;;;;;;;;;5040783;28;20183;-69
2023/12/14 14:24:25;;;;;;;16.87;11.83;;;;;;;;;;5036383;28;20571;-69
2023/12/14 14:26:51;;;;;;;47.77;31.33;;;;;;;;;;5018935;28;20187;-69